KSLO/SLO METAR and TAF weather

Enter ICAO airport designator
Station Type Date Time Source
KSLO METAR 2021/04/14 20:35 UTC NOAA

KSLO 142035Z AUTO 34013G16KT 10SM CLR 17/01 A3008 RMK AO2 T01740011


Station Type Date Time Source
KSLO Decoded METAR 2021/04/14 20:35 UTC NOAA

Salem, Salem-Leckrone Airport, IL, United States (KSLO) 38-38-34N 088-57-51W 174M
Apr 14, 2021 - 04:35 PM EDT / 2021.04.14 2035 UTC
Wind: from the NNW (340 degrees) at 15 MPH (13 KT) gusting to 18 MPH (16 KT):0
Visibility: 10 mile(s):0
Sky conditions: clear
Temperature: 63.3 F (17.4 C)
Dew Point: 34.0 F (1.1 C)
Relative Humidity: 33%
Pressure (altimeter): 30.08 in. Hg (1018 hPa)
ob: KSLO 142035Z AUTO 34013G16KT 10SM CLR 17/01 A3008 RMK AO2 T01740011
cycle: 20

Station Type Date Time Source
KSLO TAF UTC NOAA

Error!

Example: see airport list